sensor_id;sensor_type;location;lat;lon;timestamp;temperature;humidity
39493;DHT22;25176;51.060;3.720;2022-08-23T00:01:14;23.80;80.20
39493;DHT22;25176;51.060;3.720;2022-08-23T00:03:40;23.80;80.40
39493;DHT22;25176;51.060;3.720;2022-08-23T00:06:07;23.80;80.60
39493;DHT22;25176;51.060;3.720;2022-08-23T00:08:32;23.80;80.90
39493;DHT22;25176;51.060;3.720;2022-08-23T00:10:58;23.80;81.00
39493;DHT22;25176;51.060;3.720;2022-08-23T00:13:24;23.80;81.50
39493;DHT22;25176;51.060;3.720;2022-08-23T00:15:50;23.80;81.60
39493;DHT22;25176;51.060;3.720;2022-08-23T00:18:15;23.70;81.90
39493;DHT22;25176;51.060;3.720;2022-08-23T00:20:42;23.70;82.20
39493;DHT22;25176;51.060;3.720;2022-08-23T00:23:08;23.70;82.40
39493;DHT22;25176;51.060;3.720;2022-08-23T00:25:33;23.70;82.60
39493;DHT22;25176;51.060;3.720;2022-08-23T00:27:59;23.70;82.80
39493;DHT22;25176;51.060;3.720;2022-08-23T00:30:24;23.70;83.00
39493;DHT22;25176;51.060;3.720;2022-08-23T00:32:50;23.60;83.20
39493;DHT22;25176;51.060;3.720;2022-08-23T00:35:16;23.60;83.40
39493;DHT22;25176;51.060;3.720;2022-08-23T00:37:42;23.50;83.80
39493;DHT22;25176;51.060;3.720;2022-08-23T00:40:09;23.50;83.90
39493;DHT22;25176;51.060;3.720;2022-08-23T00:42:53;23.40;84.10
39493;DHT22;25176;51.060;3.720;2022-08-23T00:45:41;23.40;84.20
39493;DHT22;25176;51.060;3.720;2022-08-23T00:48:28;23.30;84.60
39493;DHT22;25176;51.060;3.720;2022-08-23T00:50:59;23.30;85.10
39493;DHT22;25176;51.060;3.720;2022-08-23T00:53:28;23.20;85.30
39493;DHT22;25176;51.060;3.720;2022-08-23T00:55:57;23.20;85.30
39493;DHT22;25176;51.060;3.720;2022-08-23T00:58:23;23.20;85.60
39493;DHT22;25176;51.060;3.720;2022-08-23T01:00:49;23.10;85.70
39493;DHT22;25176;51.060;3.720;2022-08-23T01:03:16;23.10;85.70
39493;DHT22;25176;51.060;3.720;2022-08-23T01:05:46;23.00;86.40
39493;DHT22;25176;51.060;3.720;2022-08-23T01:08:13;23.00;86.00
39493;DHT22;25176;51.060;3.720;2022-08-23T01:10:44;23.00;86.40
39493;DHT22;25176;51.060;3.720;2022-08-23T01:13:13;22.90;86.50
39493;DHT22;25176;51.060;3.720;2022-08-23T01:16:24;22.90;86.40
39493;DHT22;25176;51.060;3.720;2022-08-23T01:18:29;22.90;86.50
39493;DHT22;25176;51.060;3.720;2022-08-23T01:20:59;22.80;86.80
39493;DHT22;25176;51.060;3.720;2022-08-23T01:23:34;22.80;86.80
39493;DHT22;25176;51.060;3.720;2022-08-23T01:26:01;22.80;86.80
39493;DHT22;25176;51.060;3.720;2022-08-23T01:28:28;22.80;86.90
39493;DHT22;25176;51.060;3.720;2022-08-23T01:30:53;22.80;86.90
39493;DHT22;25176;51.060;3.720;2022-08-23T01:33:19;22.80;87.20
39493;DHT22;25176;51.060;3.720;2022-08-23T01:35:47;22.70;87.20
39493;DHT22;25176;51.060;3.720;2022-08-23T01:38:13;22.70;87.20
39493;DHT22;25176;51.060;3.720;2022-08-23T01:40:39;22.70;87.30
39493;DHT22;25176;51.060;3.720;2022-08-23T01:43:05;22.70;87.30
39493;DHT22;25176;51.060;3.720;2022-08-23T01:45:32;22.70;87.10
39493;DHT22;25176;51.060;3.720;2022-08-23T01:47:58;22.70;86.90
39493;DHT22;25176;51.060;3.720;2022-08-23T01:50:23;22.60;87.10
39493;DHT22;25176;51.060;3.720;2022-08-23T01:52:49;22.60;86.90
39493;DHT22;25176;51.060;3.720;2022-08-23T01:55:15;22.60;87.10
39493;DHT22;25176;51.060;3.720;2022-08-23T01:57:41;22.50;87.10
39493;DHT22;25176;51.060;3.720;2022-08-23T02:00:07;22.60;87.20
39493;DHT22;25176;51.060;3.720;2022-08-23T02:02:33;22.50;87.00
39493;DHT22;25176;51.060;3.720;2022-08-23T02:04:59;22.60;87.00
39493;DHT22;25176;51.060;3.720;2022-08-23T02:07:25;22.50;86.90
39493;DHT22;25176;51.060;3.720;2022-08-23T02:09:51;22.50;86.90
39493;DHT22;25176;51.060;3.720;2022-08-23T02:12:16;22.50;86.90
39493;DHT22;25176;51.060;3.720;2022-08-23T02:14:42;22.40;86.80
39493;DHT22;25176;51.060;3.720;2022-08-23T02:17:07;22.40;87.00
39493;DHT22;25176;51.060;3.720;2022-08-23T02:19:33;22.30;87.30
39493;DHT22;25176;51.060;3.720;2022-08-23T02:21:59;22.30;87.40
39493;DHT22;25176;51.060;3.720;2022-08-23T02:24:25;22.20;87.80
39493;DHT22;25176;51.060;3.720;2022-08-23T02:26:52;22.20;87.90
39493;DHT22;25176;51.060;3.720;2022-08-23T02:29:19;22.30;87.80
39493;DHT22;25176;51.060;3.720;2022-08-23T02:31:44;22.20;88.00
39493;DHT22;25176;51.060;3.720;2022-08-23T02:34:11;22.30;88.00
39493;DHT22;25176;51.060;3.720;2022-08-23T02:36:37;22.20;87.90
39493;DHT22;25176;51.060;3.720;2022-08-23T02:39:03;22.20;88.00
39493;DHT22;25176;51.060;3.720;2022-08-23T02:41:29;22.20;88.20
39493;DHT22;25176;51.060;3.720;2022-08-23T02:43:55;22.20;88.30
39493;DHT22;25176;51.060;3.720;2022-08-23T02:46:21;22.20;88.30
39493;DHT22;25176;51.060;3.720;2022-08-23T02:48:47;22.10;88.40
39493;DHT22;25176;51.060;3.720;2022-08-23T02:51:13;22.00;88.80
39493;DHT22;25176;51.060;3.720;2022-08-23T02:53:38;22.00;89.20
39493;DHT22;25176;51.060;3.720;2022-08-23T02:56:04;21.90;89.40
39493;DHT22;25176;51.060;3.720;2022-08-23T02:58:29;22.00;89.20
39493;DHT22;25176;51.060;3.720;2022-08-23T03:00:55;22.00;89.10
39493;DHT22;25176;51.060;3.720;2022-08-23T03:03:20;22.00;89.20
39493;DHT22;25176;51.060;3.720;2022-08-23T03:05:46;22.00;89.50
39493;DHT22;25176;51.060;3.720;2022-08-23T03:08:11;22.00;89.60
39493;DHT22;25176;51.060;3.720;2022-08-23T03:10:41;22.00;89.80
39493;DHT22;25176;51.060;3.720;2022-08-23T03:13:06;22.00;90.00
39493;DHT22;25176;51.060;3.720;2022-08-23T03:15:32;21.90;90.00
39493;DHT22;25176;51.060;3.720;2022-08-23T03:17:58;21.90;90.30
39493;DHT22;25176;51.060;3.720;2022-08-23T03:20:23;21.80;90.40
39493;DHT22;25176;51.060;3.720;2022-08-23T03:22:49;21.70;90.60
39493;DHT22;25176;51.060;3.720;2022-08-23T03:25:14;21.60;90.60
39493;DHT22;25176;51.060;3.720;2022-08-23T03:27:40;21.70;90.40
39493;DHT22;25176;51.060;3.720;2022-08-23T03:30:05;21.70;90.30
39493;DHT22;25176;51.060;3.720;2022-08-23T03:32:31;21.70;90.30
39493;DHT22;25176;51.060;3.720;2022-08-23T03:34:57;21.60;90.30
39493;DHT22;25176;51.060;3.720;2022-08-23T03:37:22;21.60;90.20
39493;DHT22;25176;51.060;3.720;2022-08-23T03:39:48;21.60;90.10
39493;DHT22;25176;51.060;3.720;2022-08-23T03:42:14;21.60;90.20
39493;DHT22;25176;51.060;3.720;2022-08-23T03:44:39;21.60;90.30
39493;DHT22;25176;51.060;3.720;2022-08-23T03:47:05;21.60;90.40
39493;DHT22;25176;51.060;3.720;2022-08-23T03:49:30;21.70;90.30
39493;DHT22;25176;51.060;3.720;2022-08-23T03:51:56;21.70;90.30
39493;DHT22;25176;51.060;3.720;2022-08-23T03:54:22;21.70;90.40
39493;DHT22;25176;51.060;3.720;2022-08-23T03:56:49;21.70;90.40
39493;DHT22;25176;51.060;3.720;2022-08-23T03:59:14;21.80;90.40
39493;DHT22;25176;51.060;3.720;2022-08-23T04:01:40;21.90;90.30
39493;DHT22;25176;51.060;3.720;2022-08-23T04:04:05;22.00;90.00
39493;DHT22;25176;51.060;3.720;2022-08-23T04:06:31;22.00;89.80
39493;DHT22;25176;51.060;3.720;2022-08-23T04:08:57;22.00;89.60
39493;DHT22;25176;51.060;3.720;2022-08-23T04:11:23;22.00;89.40
39493;DHT22;25176;51.060;3.720;2022-08-23T04:13:49;22.00;89.00
39493;DHT22;25176;51.060;3.720;2022-08-23T04:16:15;22.00;88.70
39493;DHT22;25176;51.060;3.720;2022-08-23T04:18:43;22.10;88.60
39493;DHT22;25176;51.060;3.720;2022-08-23T04:21:09;22.20;88.10
39493;DHT22;25176;51.060;3.720;2022-08-23T04:23:39;22.20;87.80
39493;DHT22;25176;51.060;3.720;2022-08-23T04:26:05;22.20;87.50
39493;DHT22;25176;51.060;3.720;2022-08-23T04:28:31;22.20;87.50
39493;DHT22;25176;51.060;3.720;2022-08-23T04:30:56;22.20;87.80
39493;DHT22;25176;51.060;3.720;2022-08-23T04:33:25;22.20;87.90
39493;DHT22;25176;51.060;3.720;2022-08-23T04:35:50;22.10;88.20
39493;DHT22;25176;51.060;3.720;2022-08-23T04:38:15;22.10;88.10
39493;DHT22;25176;51.060;3.720;2022-08-23T04:40:41;22.20;88.00
39493;DHT22;25176;51.060;3.720;2022-08-23T04:43:42;22.10;88.00
39493;DHT22;25176;51.060;3.720;2022-08-23T04:46:11;22.00;88.40
39493;DHT22;25176;51.060;3.720;2022-08-23T04:48:38;22.00;88.30
39493;DHT22;25176;51.060;3.720;2022-08-23T04:51:04;22.00;88.40
39493;DHT22;25176;51.060;3.720;2022-08-23T04:53:30;22.00;88.40
39493;DHT22;25176;51.060;3.720;2022-08-23T04:55:59;21.90;88.70
39493;DHT22;25176;51.060;3.720;2022-08-23T04:58:26;21.90;88.90
39493;DHT22;25176;51.060;3.720;2022-08-23T05:00:52;21.70;88.90
39493;DHT22;25176;51.060;3.720;2022-08-23T05:03:18;21.60;89.30
39493;DHT22;25176;51.060;3.720;2022-08-23T05:05:44;21.50;89.90
39493;DHT22;25176;51.060;3.720;2022-08-23T05:08:09;21.60;89.80
39493;DHT22;25176;51.060;3.720;2022-08-23T05:10:35;21.60;90.10
39493;DHT22;25176;51.060;3.720;2022-08-23T05:13:00;21.60;90.10
39493;DHT22;25176;51.060;3.720;2022-08-23T05:15:26;21.60;90.10
39493;DHT22;25176;51.060;3.720;2022-08-23T05:17:51;21.70;89.90
39493;DHT22;25176;51.060;3.720;2022-08-23T05:20:17;21.70;89.90
39493;DHT22;25176;51.060;3.720;2022-08-23T05:22:42;21.70;89.70
39493;DHT22;25176;51.060;3.720;2022-08-23T05:25:08;21.70;89.80
39493;DHT22;25176;51.060;3.720;2022-08-23T05:27:34;21.70;89.70
39493;DHT22;25176;51.060;3.720;2022-08-23T05:30:00;21.80;89.70
39493;DHT22;25176;51.060;3.720;2022-08-23T05:32:25;21.70;89.90
39493;DHT22;25176;51.060;3.720;2022-08-23T05:34:51;21.70;90.00
39493;DHT22;25176;51.060;3.720;2022-08-23T05:37:16;21.70;90.00
39493;DHT22;25176;51.060;3.720;2022-08-23T05:39:42;21.60;90.00
39493;DHT22;25176;51.060;3.720;2022-08-23T05:42:08;21.70;90.00
39493;DHT22;25176;51.060;3.720;2022-08-23T05:44:34;21.80;89.80
39493;DHT22;25176;51.060;3.720;2022-08-23T05:47:00;21.80;89.70
39493;DHT22;25176;51.060;3.720;2022-08-23T05:49:25;21.90;89.40
39493;DHT22;25176;51.060;3.720;2022-08-23T05:51:51;21.80;89.60
39493;DHT22;25176;51.060;3.720;2022-08-23T05:54:16;21.90;89.50
39493;DHT22;25176;51.060;3.720;2022-08-23T05:56:42;22.00;89.40
39493;DHT22;25176;51.060;3.720;2022-08-23T05:59:09;22.00;89.40
39493;DHT22;25176;51.060;3.720;2022-08-23T06:01:35;22.00;89.40
39493;DHT22;25176;51.060;3.720;2022-08-23T06:04:01;22.00;89.30
39493;DHT22;25176;51.060;3.720;2022-08-23T06:06:27;22.00;89.70
39493;DHT22;25176;51.060;3.720;2022-08-23T06:08:53;22.00;89.30
39493;DHT22;25176;51.060;3.720;2022-08-23T06:11:23;22.00;89.10
39493;DHT22;25176;51.060;3.720;2022-08-23T06:13:52;22.10;89.10
39493;DHT22;25176;51.060;3.720;2022-08-23T06:16:20;22.20;89.00
39493;DHT22;25176;51.060;3.720;2022-08-23T06:18:46;22.10;88.80
39493;DHT22;25176;51.060;3.720;2022-08-23T06:21:12;22.10;88.60
39493;DHT22;25176;51.060;3.720;2022-08-23T06:23:38;22.20;88.50
39493;DHT22;25176;51.060;3.720;2022-08-23T06:26:10;22.10;88.50
39493;DHT22;25176;51.060;3.720;2022-08-23T06:28:36;22.10;88.70
39493;DHT22;25176;51.060;3.720;2022-08-23T06:31:02;22.10;88.80
39493;DHT22;25176;51.060;3.720;2022-08-23T06:33:27;22.20;88.60
39493;DHT22;25176;51.060;3.720;2022-08-23T06:36:01;22.20;88.40
39493;DHT22;25176;51.060;3.720;2022-08-23T06:38:28;22.20;88.60
39493;DHT22;25176;51.060;3.720;2022-08-23T06:41:04;22.20;88.50
39493;DHT22;25176;51.060;3.720;2022-08-23T06:43:30;22.20;88.10
39493;DHT22;25176;51.060;3.720;2022-08-23T06:46:09;22.30;88.20
39493;DHT22;25176;51.060;3.720;2022-08-23T06:48:35;22.30;87.90
39493;DHT22;25176;51.060;3.720;2022-08-23T06:51:00;22.40;87.50
39493;DHT22;25176;51.060;3.720;2022-08-23T06:53:26;22.30;87.40
39493;DHT22;25176;51.060;3.720;2022-08-23T06:55:51;22.40;86.70
39493;DHT22;25176;51.060;3.720;2022-08-23T06:58:18;22.50;87.50
39493;DHT22;25176;51.060;3.720;2022-08-23T07:00:43;22.30;87.50
39493;DHT22;25176;51.060;3.720;2022-08-23T07:03:09;22.30;88.00
39493;DHT22;25176;51.060;3.720;2022-08-23T07:05:34;22.30;88.40
39493;DHT22;25176;51.060;3.720;2022-08-23T07:08:00;22.30;88.10
39493;DHT22;25176;51.060;3.720;2022-08-23T07:10:25;22.50;87.60
39493;DHT22;25176;51.060;3.720;2022-08-23T07:12:52;22.60;87.70
39493;DHT22;25176;51.060;3.720;2022-08-23T07:15:17;22.60;87.60
39493;DHT22;25176;51.060;3.720;2022-08-23T07:17:43;22.60;87.80
39493;DHT22;25176;51.060;3.720;2022-08-23T07:20:09;22.60;88.00
39493;DHT22;25176;51.060;3.720;2022-08-23T07:22:34;23.00;88.70
39493;DHT22;25176;51.060;3.720;2022-08-23T07:25:00;25.10;85.30
39493;DHT22;25176;51.060;3.720;2022-08-23T07:27:27;27.80;79.30
39493;DHT22;25176;51.060;3.720;2022-08-23T07:29:52;30.30;72.00
39493;DHT22;25176;51.060;3.720;2022-08-23T07:32:18;32.20;68.50
39493;DHT22;25176;51.060;3.720;2022-08-23T07:34:43;33.80;63.70
39493;DHT22;25176;51.060;3.720;2022-08-23T07:37:09;34.70;60.50
39493;DHT22;25176;51.060;3.720;2022-08-23T07:39:35;35.40;58.40
39493;DHT22;25176;51.060;3.720;2022-08-23T07:42:00;35.30;58.10
39493;DHT22;25176;51.060;3.720;2022-08-23T07:44:26;36.30;57.20
39493;DHT22;25176;51.060;3.720;2022-08-23T07:46:52;37.40;55.90
39493;DHT22;25176;51.060;3.720;2022-08-23T07:49:18;39.10;53.80
39493;DHT22;25176;51.060;3.720;2022-08-23T07:51:44;38.80;52.40
39493;DHT22;25176;51.060;3.720;2022-08-23T07:54:10;39.90;51.30
39493;DHT22;25176;51.060;3.720;2022-08-23T07:56:37;39.90;50.30
39493;DHT22;25176;51.060;3.720;2022-08-23T07:59:03;40.50;49.70
39493;DHT22;25176;51.060;3.720;2022-08-23T08:01:29;41.10;49.30
39493;DHT22;25176;51.060;3.720;2022-08-23T08:03:55;40.70;48.60
39493;DHT22;25176;51.060;3.720;2022-08-23T08:06:22;40.00;48.80
39493;DHT22;25176;51.060;3.720;2022-08-23T08:08:48;39.80;49.30
39493;DHT22;25176;51.060;3.720;2022-08-23T08:11:15;40.60;48.10
39493;DHT22;25176;51.060;3.720;2022-08-23T08:13:41;42.80;46.60
39493;DHT22;25176;51.060;3.720;2022-08-23T08:16:08;43.20;45.70
39493;DHT22;25176;51.060;3.720;2022-08-23T08:18:35;41.40;46.10
39493;DHT22;25176;51.060;3.720;2022-08-23T08:21:00;40.80;47.30
39493;DHT22;25176;51.060;3.720;2022-08-23T08:23:26;40.60;47.40
39493;DHT22;25176;51.060;3.720;2022-08-23T08:26:00;41.30;47.00
39493;DHT22;25176;51.060;3.720;2022-08-23T08:28:25;41.40;46.80
39493;DHT22;25176;51.060;3.720;2022-08-23T08:30:51;41.50;46.30
39493;DHT22;25176;51.060;3.720;2022-08-23T08:33:17;41.00;47.20
39493;DHT22;25176;51.060;3.720;2022-08-23T08:35:45;41.10;47.10
39493;DHT22;25176;51.060;3.720;2022-08-23T08:38:11;41.70;46.60
39493;DHT22;25176;51.060;3.720;2022-08-23T08:40:37;42.30;46.10
39493;DHT22;25176;51.060;3.720;2022-08-23T08:43:29;42.10;46.10
39493;DHT22;25176;51.060;3.720;2022-08-23T08:45:58;43.10;45.50
39493;DHT22;25176;51.060;3.720;2022-08-23T08:48:26;44.20;44.30
39493;DHT22;25176;51.060;3.720;2022-08-23T08:50:56;44.50;43.70
39493;DHT22;25176;51.060;3.720;2022-08-23T08:53:27;44.80;43.40
39493;DHT22;25176;51.060;3.720;2022-08-23T08:55:55;46.00;42.90
39493;DHT22;25176;51.060;3.720;2022-08-23T08:58:27;45.80;42.20
39493;DHT22;25176;51.060;3.720;2022-08-23T09:00:53;47.10;42.00
39493;DHT22;25176;51.060;3.720;2022-08-23T09:03:19;48.80;40.80
39493;DHT22;25176;51.060;3.720;2022-08-23T09:05:51;47.70;40.20
39493;DHT22;25176;51.060;3.720;2022-08-23T09:08:40;46.10;41.30
39493;DHT22;25176;51.060;3.720;2022-08-23T09:11:18;48.60;40.50
39493;DHT22;25176;51.060;3.720;2022-08-23T09:16:16;49.90;39.00
39493;DHT22;25176;51.060;3.720;2022-08-23T09:18:45;51.70;38.20
39493;DHT22;25176;51.060;3.720;2022-08-23T09:21:10;50.90;37.80
39493;DHT22;25176;51.060;3.720;2022-08-23T09:23:40;49.30;38.10
39493;DHT22;25176;51.060;3.720;2022-08-23T09:26:21;48.00;38.60
39493;DHT22;25176;51.060;3.720;2022-08-23T09:28:48;46.80;39.80
39493;DHT22;25176;51.060;3.720;2022-08-23T09:31:34;47.80;39.90
39493;DHT22;25176;51.060;3.720;2022-08-23T09:34:00;48.80;39.40
39493;DHT22;25176;51.060;3.720;2022-08-23T09:36:26;49.40;39.00
39493;DHT22;25176;51.060;3.720;2022-08-23T09:39:00;49.00;38.70
39493;DHT22;25176;51.060;3.720;2022-08-23T09:43:57;46.10;40.20
39493;DHT22;25176;51.060;3.720;2022-08-23T09:46:27;42.60;42.70
39493;DHT22;25176;51.060;3.720;2022-08-23T09:48:53;39.90;45.00
39493;DHT22;25176;51.060;3.720;2022-08-23T09:53:49;37.90;47.80
39493;DHT22;25176;51.060;3.720;2022-08-23T09:56:17;36.90;49.00
39493;DHT22;25176;51.060;3.720;2022-08-23T09:58:46;37.20;49.30
39493;DHT22;25176;51.060;3.720;2022-08-23T10:01:28;37.70;49.60
39493;DHT22;25176;51.060;3.720;2022-08-23T10:06:32;40.70;46.10
39493;DHT22;25176;51.060;3.720;2022-08-23T10:08:58;40.70;46.40
39493;DHT22;25176;51.060;3.720;2022-08-23T10:11:31;41.50;45.50
39493;DHT22;25176;51.060;3.720;2022-08-23T10:13:59;40.30;46.10
39493;DHT22;25176;51.060;3.720;2022-08-23T10:21:53;41.60;45.40
39493;DHT22;25176;51.060;3.720;2022-08-23T10:26:58;43.90;43.60
39493;DHT22;25176;51.060;3.720;2022-08-23T10:32:23;42.90;43.50
39493;DHT22;25176;51.060;3.720;2022-08-23T10:35:02;41.80;44.80
39493;DHT22;25176;51.060;3.720;2022-08-23T10:37:33;40.90;45.80
39493;DHT22;25176;51.060;3.720;2022-08-23T10:45:20;38.20;48.30
39493;DHT22;25176;51.060;3.720;2022-08-23T10:48:34;36.90;49.90
39493;DHT22;25176;51.060;3.720;2022-08-23T10:50:44;35.90;51.80
39493;DHT22;25176;51.060;3.720;2022-08-23T10:53:12;35.00;53.10
39493;DHT22;25176;51.060;3.720;2022-08-23T10:55:40;34.50;54.60
39493;DHT22;25176;51.060;3.720;2022-08-23T10:58:27;33.90;55.10
39493;DHT22;25176;51.060;3.720;2022-08-23T11:00:55;33.50;57.00
39493;DHT22;25176;51.060;3.720;2022-08-23T11:03:26;32.70;57.70
39493;DHT22;25176;51.060;3.720;2022-08-23T11:08:36;32.50;57.80
39493;DHT22;25176;51.060;3.720;2022-08-23T11:11:30;32.20;58.00
39493;DHT22;25176;51.060;3.720;2022-08-23T11:13:53;32.20;58.10
39493;DHT22;25176;51.060;3.720;2022-08-23T11:16:27;32.40;57.90
39493;DHT22;25176;51.060;3.720;2022-08-23T11:18:53;31.90;58.80
39493;DHT22;25176;51.060;3.720;2022-08-23T11:23:49;31.50;59.50
39493;DHT22;25176;51.060;3.720;2022-08-23T11:28:46;31.20;60.20
39493;DHT22;25176;51.060;3.720;2022-08-23T11:31:26;31.40;59.40
39493;DHT22;25176;51.060;3.720;2022-08-23T11:42:22;31.50;58.80
39493;DHT22;25176;51.060;3.720;2022-08-23T11:44:48;31.60;58.50
39493;DHT22;25176;51.060;3.720;2022-08-23T11:47:14;31.70;59.00
39493;DHT22;25176;51.060;3.720;2022-08-23T11:49:58;31.70;58.90
39493;DHT22;25176;51.060;3.720;2022-08-23T11:52:33;31.80;59.00
39493;DHT22;25176;51.060;3.720;2022-08-23T12:00:03;31.50;59.80
39493;DHT22;25176;51.060;3.720;2022-08-23T12:07:44;31.60;59.90
39493;DHT22;25176;51.060;3.720;2022-08-23T12:10:10;31.50;59.80
39493;DHT22;25176;51.060;3.720;2022-08-23T12:12:39;31.50;59.50
39493;DHT22;25176;51.060;3.720;2022-08-23T12:15:07;31.30;59.60
39493;DHT22;25176;51.060;3.720;2022-08-23T12:20:07;31.20;59.80
39493;DHT22;25176;51.060;3.720;2022-08-23T12:22:56;31.20;60.30
39493;DHT22;25176;51.060;3.720;2022-08-23T12:25:21;31.10;60.40
39493;DHT22;25176;51.060;3.720;2022-08-23T12:27:48;31.20;60.00
39493;DHT22;25176;51.060;3.720;2022-08-23T12:30:21;31.30;60.00
39493;DHT22;25176;51.060;3.720;2022-08-23T12:43:07;31.00;58.00
39493;DHT22;25176;51.060;3.720;2022-08-23T12:45:41;30.90;58.70
39493;DHT22;25176;51.060;3.720;2022-08-23T12:48:13;30.60;59.80
39493;DHT22;25176;51.060;3.720;2022-08-23T12:50:40;30.70;59.80
39493;DHT22;25176;51.060;3.720;2022-08-23T12:53:12;30.70;59.40
39493;DHT22;25176;51.060;3.720;2022-08-23T12:55:42;30.60;60.00
39493;DHT22;25176;51.060;3.720;2022-08-23T12:58:08;30.60;59.50
39493;DHT22;25176;51.060;3.720;2022-08-23T13:00:38;30.70;60.10
39493;DHT22;25176;51.060;3.720;2022-08-23T13:08:01;30.50;58.60
39493;DHT22;25176;51.060;3.720;2022-08-23T13:10:28;30.40;59.60
39493;DHT22;25176;51.060;3.720;2022-08-23T13:12:54;30.60;59.40
39493;DHT22;25176;51.060;3.720;2022-08-23T13:18:04;30.50;59.00
39493;DHT22;25176;51.060;3.720;2022-08-23T13:20:29;30.30;59.00
39493;DHT22;25176;51.060;3.720;2022-08-23T13:25:25;30.10;59.30
39493;DHT22;25176;51.060;3.720;2022-08-23T13:27:53;30.10;58.20
39493;DHT22;25176;51.060;3.720;2022-08-23T13:30:20;30.00;58.20
39493;DHT22;25176;51.060;3.720;2022-08-23T13:32:47;30.00;58.30
39493;DHT22;25176;51.060;3.720;2022-08-23T13:35:31;30.10;57.70
39493;DHT22;25176;51.060;3.720;2022-08-23T13:37:58;30.20;57.40
39493;DHT22;25176;51.060;3.720;2022-08-23T13:40:25;30.20;57.30
39493;DHT22;25176;51.060;3.720;2022-08-23T13:42:55;30.00;57.30
39493;DHT22;25176;51.060;3.720;2022-08-23T13:45:25;30.10;57.40
39493;DHT22;25176;51.060;3.720;2022-08-23T13:47:56;30.20;57.20
39493;DHT22;25176;51.060;3.720;2022-08-23T13:50:27;30.20;56.80
39493;DHT22;25176;51.060;3.720;2022-08-23T13:52:53;30.10;57.30
39493;DHT22;25176;51.060;3.720;2022-08-23T13:55:18;30.00;57.30
39493;DHT22;25176;51.060;3.720;2022-08-23T13:57:44;29.90;58.20
39493;DHT22;25176;51.060;3.720;2022-08-23T14:00:10;30.00;57.90
39493;DHT22;25176;51.060;3.720;2022-08-23T14:02:36;30.10;57.30
39493;DHT22;25176;51.060;3.720;2022-08-23T14:05:02;30.00;57.30
39493;DHT22;25176;51.060;3.720;2022-08-23T14:07:28;29.90;57.40
39493;DHT22;25176;51.060;3.720;2022-08-23T14:09:53;29.90;57.20
39493;DHT22;25176;51.060;3.720;2022-08-23T14:12:21;29.90;58.10
39493;DHT22;25176;51.060;3.720;2022-08-23T14:14:48;29.80;57.80
39493;DHT22;25176;51.060;3.720;2022-08-23T14:17:14;29.90;58.20
39493;DHT22;25176;51.060;3.720;2022-08-23T14:19:40;29.90;57.80
39493;DHT22;25176;51.060;3.720;2022-08-23T14:22:07;30.00;57.80
39493;DHT22;25176;51.060;3.720;2022-08-23T14:24:33;30.00;58.10
39493;DHT22;25176;51.060;3.720;2022-08-23T14:26:58;29.90;58.10
39493;DHT22;25176;51.060;3.720;2022-08-23T14:29:25;29.90;58.20
39493;DHT22;25176;51.060;3.720;2022-08-23T14:31:52;30.00;58.90
39493;DHT22;25176;51.060;3.720;2022-08-23T14:34:18;30.00;58.70
39493;DHT22;25176;51.060;3.720;2022-08-23T14:36:44;30.00;59.00
39493;DHT22;25176;51.060;3.720;2022-08-23T14:39:10;29.90;58.80
39493;DHT22;25176;51.060;3.720;2022-08-23T14:41:35;29.90;58.50
39493;DHT22;25176;51.060;3.720;2022-08-23T14:44:01;29.90;58.60
39493;DHT22;25176;51.060;3.720;2022-08-23T14:46:27;29.60;58.70
39493;DHT22;25176;51.060;3.720;2022-08-23T14:48:52;29.50;59.10
39493;DHT22;25176;51.060;3.720;2022-08-23T14:51:22;29.60;58.80
39493;DHT22;25176;51.060;3.720;2022-08-23T14:53:48;29.40;59.60
39493;DHT22;25176;51.060;3.720;2022-08-23T14:56:13;29.20;59.70
39493;DHT22;25176;51.060;3.720;2022-08-23T14:58:39;29.00;60.70
39493;DHT22;25176;51.060;3.720;2022-08-23T15:01:06;29.00;60.70
39493;DHT22;25176;51.060;3.720;2022-08-23T15:03:32;29.20;59.70
39493;DHT22;25176;51.060;3.720;2022-08-23T15:05:57;29.20;59.20
39493;DHT22;25176;51.060;3.720;2022-08-23T15:08:23;29.20;60.20
39493;DHT22;25176;51.060;3.720;2022-08-23T15:10:49;29.20;60.60
39493;DHT22;25176;51.060;3.720;2022-08-23T15:13:21;29.10;60.40
39493;DHT22;25176;51.060;3.720;2022-08-23T15:15:48;29.10;60.90
39493;DHT22;25176;51.060;3.720;2022-08-23T15:18:14;29.10;60.30
39493;DHT22;25176;51.060;3.720;2022-08-23T15:20:40;29.00;61.60
39493;DHT22;25176;51.060;3.720;2022-08-23T15:23:07;29.00;60.50
39493;DHT22;25176;51.060;3.720;2022-08-23T15:25:34;28.80;61.10
39493;DHT22;25176;51.060;3.720;2022-08-23T15:28:00;28.60;61.70
39493;DHT22;25176;51.060;3.720;2022-08-23T15:30:26;28.60;60.60
39493;DHT22;25176;51.060;3.720;2022-08-23T15:32:52;28.90;59.70
39493;DHT22;25176;51.060;3.720;2022-08-23T15:35:17;28.90;60.00
39493;DHT22;25176;51.060;3.720;2022-08-23T15:37:43;28.80;60.90
39493;DHT22;25176;51.060;3.720;2022-08-23T15:40:09;28.60;61.50
39493;DHT22;25176;51.060;3.720;2022-08-23T15:42:35;28.50;61.90
39493;DHT22;25176;51.060;3.720;2022-08-23T15:45:01;28.50;62.00
39493;DHT22;25176;51.060;3.720;2022-08-23T15:47:27;28.40;61.60
39493;DHT22;25176;51.060;3.720;2022-08-23T15:49:53;28.50;61.60
39493;DHT22;25176;51.060;3.720;2022-08-23T15:52:19;28.60;60.90
39493;DHT22;25176;51.060;3.720;2022-08-23T15:54:45;28.60;61.30
39493;DHT22;25176;51.060;3.720;2022-08-23T15:57:19;28.60;60.90
39493;DHT22;25176;51.060;3.720;2022-08-23T15:59:45;28.70;61.20
39493;DHT22;25176;51.060;3.720;2022-08-23T16:02:11;28.80;60.70
39493;DHT22;25176;51.060;3.720;2022-08-23T16:04:37;29.00;60.50
39493;DHT22;25176;51.060;3.720;2022-08-23T16:07:03;29.00;59.60
39493;DHT22;25176;51.060;3.720;2022-08-23T16:09:29;29.00;59.90
39493;DHT22;25176;51.060;3.720;2022-08-23T16:11:55;28.70;60.80
39493;DHT22;25176;51.060;3.720;2022-08-23T16:14:20;28.50;61.70
39493;DHT22;25176;51.060;3.720;2022-08-23T16:16:45;28.30;62.10
39493;DHT22;25176;51.060;3.720;2022-08-23T16:19:12;28.40;61.30
39493;DHT22;25176;51.060;3.720;2022-08-23T16:21:38;28.50;61.30
39493;DHT22;25176;51.060;3.720;2022-08-23T16:24:04;28.40;62.30
39493;DHT22;25176;51.060;3.720;2022-08-23T16:26:31;28.40;62.30
39493;DHT22;25176;51.060;3.720;2022-08-23T16:28:57;28.50;61.90
39493;DHT22;25176;51.060;3.720;2022-08-23T16:31:23;28.60;61.70
39493;DHT22;25176;51.060;3.720;2022-08-23T16:33:57;28.70;60.40
39493;DHT22;25176;51.060;3.720;2022-08-23T16:36:23;28.90;61.10
39493;DHT22;25176;51.060;3.720;2022-08-23T16:38:49;28.80;60.50
39493;DHT22;25176;51.060;3.720;2022-08-23T16:41:15;28.80;60.30
39493;DHT22;25176;51.060;3.720;2022-08-23T16:43:40;28.80;60.50
39493;DHT22;25176;51.060;3.720;2022-08-23T16:46:06;28.70;60.90
39493;DHT22;25176;51.060;3.720;2022-08-23T16:48:32;28.70;61.00